Time;durP1;ratioP1;P1;durP2;ratioP2;P2;SDS_P1;SDS_P2;PMS_P1;PMS_P2;Temp;Humidity;BMP_temperature;BMP_pressure;BME280_temperature;BME280_humidity;BME280_pressure;Samples;Min_cycle;Max_cycle;Signal;HPM_P1;HPM_P2
2022/03/20 00:00:39;;;;;;;12.30;7.27;;;2.60;77.10;;;;;;4917367;29;20555;-76
2022/03/20 00:03:12;;;;;;;12.23;5.90;;;2.70;76.60;;;;;;4917395;29;20713;-76
2022/03/20 00:05:39;;;;;;;12.23;8.10;;;2.60;76.70;;;;;;4917308;29;20397;-77
2022/03/20 00:08:09;;;;;;;11.53;7.70;;;2.60;77.10;;;;;;4900155;29;20961;-76
2022/03/20 00:10:44;;;;;;;14.03;7.23;;;2.50;77.00;;;;;;4900230;29;20469;-76
2022/03/20 00:13:10;;;;;;;8.40;5.90;;;2.30;78.40;;;;;;4917309;29;20447;-76
2022/03/20 00:15:40;;;;;;;15.20;7.63;;;2.30;78.10;;;;;;4917011;29;20484;-77
2022/03/20 00:18:07;;;;;;;13.07;6.50;;;2.40;78.10;;;;;;4916886;29;20416;-77
2022/03/20 00:20:35;;;;;;;11.03;7.10;;;2.30;78.10;;;;;;4916888;29;20443;-76
2022/03/20 00:23:04;;;;;;;10.67;6.93;;;2.30;78.20;;;;;;4900012;29;20567;-76
2022/03/20 00:25:30;;;;;;;14.13;8.03;;;2.40;77.80;;;;;;4916648;29;20412;-78
2022/03/20 00:27:56;;;;;;;12.73;5.23;;;2.20;79.00;;;;;;4899699;29;20426;-78
2022/03/20 00:30:22;;;;;;;16.60;7.20;;;2.20;79.10;;;;;;4916844;29;20424;-75
2022/03/20 00:32:47;;;;;;;8.50;5.67;;;2.20;78.60;;;;;;4916919;29;20192;-76
2022/03/20 00:35:12;;;;;;;11.50;8.20;;;2.30;78.50;;;;;;4899449;29;20211;-77
2022/03/20 00:37:38;;;;;;;10.20;5.23;;;2.40;78.10;;;;;;4916605;29;20210;-76
2022/03/20 00:40:04;;;;;;;13.43;7.97;;;2.30;78.60;;;;;;4916694;29;20284;-76
2022/03/20 00:42:30;;;;;;;17.20;8.10;;;2.20;78.90;;;;;;4916457;29;20211;-76
2022/03/20 00:44:55;;;;;;;10.80;6.70;;;2.10;79.30;;;;;;4916478;29;20801;-77
2022/03/20 00:47:21;;;;;;;14.77;7.67;;;2.10;79.10;;;;;;4916618;29;20180;-76
2022/03/20 00:49:47;;;;;;;10.30;6.70;;;2.10;79.80;;;;;;4899437;29;20176;-77
2022/03/20 00:52:12;;;;;;;13.57;7.10;;;2.30;78.70;;;;;;4916363;29;20210;-76
2022/03/20 00:54:38;;;;;;;10.53;6.27;;;2.20;79.10;;;;;;4916509;29;20192;-77
2022/03/20 00:57:04;;;;;;;12.47;7.67;;;2.20;78.90;;;;;;4916398;29;20185;-76
2022/03/20 00:59:29;;;;;;;15.00;7.90;;;2.20;79.10;;;;;;4916152;29;20191;-76
2022/03/20 05:02:36;;;;;;;19.50;10.60;;;1.00;95.10;;;;;;4932185;29;20470;-79
2022/03/20 05:05:06;;;;;;;18.20;10.20;;;1.10;94.50;;;;;;4918442;29;20562;-78
2022/03/20 05:07:33;;;;;;;18.10;12.67;;;1.20;94.40;;;;;;4916075;29;20183;-79
2022/03/20 05:15:29;;;;;;;17.20;10.63;;;1.30;93.70;;;;;;4919018;29;20469;-79
2022/03/20 05:17:54;;;;;;;18.70;11.47;;;1.20;94.00;;;;;;4914784;29;20425;-79
2022/03/20 05:20:23;;;;;;;18.63;10.70;;;1.30;93.60;;;;;;4914360;29;20180;-79
2022/03/20 05:22:49;;;;;;;12.00;8.30;;;1.20;94.20;;;;;;4915143;29;20211;-78
2022/03/20 05:25:16;;;;;;;17.70;11.30;;;1.10;94.80;;;;;;4914903;29;20945;-79
2022/03/20 05:27:41;;;;;;;20.47;9.60;;;1.20;94.20;;;;;;4914661;29;20183;-79
2022/03/20 05:30:07;;;;;;;21.03;10.07;;;1.30;93.70;;;;;;4915088;29;20420;-79
2022/03/20 05:32:35;;;;;;;21.13;9.33;;;1.30;93.60;;;;;;4915414;29;20275;-79
2022/03/20 05:35:06;;;;;;;20.17;11.20;;;1.40;93.40;;;;;;4914844;29;20933;-79
2022/03/20 05:37:32;;;;;;;14.60;9.00;;;1.50;93.20;;;;;;4914835;29;20479;-78
2022/03/20 05:39:58;;;;;;;27.30;14.07;;;1.60;92.80;;;;;;4916461;29;20523;-78
2022/03/20 05:42:24;;;;;;;19.37;11.07;;;2.00;92.40;;;;;;4915117;29;20555;-79
2022/03/20 05:44:50;;;;;;;17.17;10.13;;;2.60;90.10;;;;;;4915488;29;20432;-79
2022/03/20 05:47:15;;;;;;;17.13;9.63;;;2.80;88.80;;;;;;4916926;29;20573;-78
2022/03/20 05:49:41;;;;;;;23.90;11.57;;;3.20;87.30;;;;;;4914825;29;20215;-79
2022/03/20 05:52:07;;;;;;;16.67;10.17;;;3.50;86.30;;;;;;4915088;29;20240;-79
2022/03/20 05:54:33;;;;;;;13.93;8.97;;;3.70;85.40;;;;;;4915341;29;20432;-78
2022/03/20 05:59:43;;;;;;;13.53;8.67;;;4.20;83.50;;;;;;4916704;29;20449;-78
2022/03/20 06:02:09;;;;;;;12.53;8.70;;;4.10;83.10;;;;;;4915862;29;20475;-79
2022/03/20 06:04:35;;;;;;;18.67;12.00;;;4.40;82.50;;;;;;4899643;29;20184;-79
2022/03/20 06:07:00;;;;;;;15.90;10.47;;;4.60;82.10;;;;;;4915794;29;20424;-79
2022/03/20 06:09:26;;;;;;;15.83;9.90;;;4.30;82.40;;;;;;4915314;29;20245;-79
2022/03/20 06:11:52;;;;;;;16.00;11.53;;;4.80;81.30;;;;;;4916413;29;20610;-78
2022/03/20 06:14:17;;;;;;;14.57;10.00;;;5.10;80.70;;;;;;4916812;29;20180;-79
2022/03/20 06:16:48;;;;;;;18.63;11.27;;;5.30;79.50;;;;;;4916329;29;20410;-79
2022/03/20 06:19:15;;;;;;;14.90;10.40;;;5.70;78.80;;;;;;4915193;29;20185;-79
2022/03/20 06:21:41;;;;;;;16.67;9.17;;;5.80;78.40;;;;;;4916126;29;21074;-80
2022/03/20 06:24:06;;;;;;;16.47;9.70;;;5.60;77.60;;;;;;4915493;29;20579;-79
2022/03/20 06:26:32;;;;;;;11.63;8.37;;;5.50;78.60;;;;;;4915143;29;20543;-79
2022/03/20 06:28:57;;;;;;;14.97;10.03;;;5.60;77.20;;;;;;4915062;29;20204;-79
2022/03/20 06:31:23;;;;;;;12.07;7.43;;;5.70;77.20;;;;;;4916407;29;20213;-80
2022/03/20 06:33:48;;;;;;;12.57;7.23;;;5.70;75.90;;;;;;4919618;29;20176;-79
2022/03/20 06:36:14;;;;;;;12.77;7.80;;;5.30;76.80;;;;;;4919598;29;20181;-78
2022/03/20 06:38:41;;;;;;;11.20;7.97;;;5.70;76.40;;;;;;4918245;29;20385;-78
2022/03/20 06:41:08;;;;;;;10.93;7.93;;;5.50;75.50;;;;;;4919395;29;20466;-77
2022/03/20 06:43:37;;;;;;;20.67;10.33;;;5.60;76.60;;;;;;4919452;29;20463;-79
2022/03/20 06:46:05;;;;;;;12.30;8.13;;;5.70;75.10;;;;;;4919374;29;21087;-79
2022/03/20 06:48:31;;;;;;;14.70;7.97;;;5.90;74.80;;;;;;4919049;29;20444;-78
2022/03/20 06:50:57;;;;;;;11.47;7.57;;;5.80;74.70;;;;;;4917939;29;20961;-78
2022/03/20 06:53:22;;;;;;;17.20;9.70;;;5.70;74.70;;;;;;4917943;29;20259;-79
2022/03/20 06:55:48;;;;;;;15.80;9.03;;;5.80;75.10;;;;;;4917937;29;20240;-79
2022/03/20 06:58:14;;;;;;;11.87;9.20;;;6.10;74.70;;;;;;4919193;29;20263;-79
2022/03/20 07:00:40;;;;;;;12.53;8.73;;;6.20;74.70;;;;;;4917688;29;20555;-79
2022/03/20 07:03:09;;;;;;;10.73;7.77;;;6.40;73.00;;;;;;4917656;29;20773;-79
2022/03/20 07:05:36;;;;;;;8.97;6.20;;;5.90;74.30;;;;;;4918968;29;20440;-78
2022/03/20 07:08:05;;;;;;;13.50;7.13;;;6.10;74.30;;;;;;4917532;29;20447;-79
2022/03/20 07:10:31;;;;;;;10.27;7.67;;;5.90;74.10;;;;;;4917675;29;20440;-79
2022/03/20 07:15:46;;;;;;;14.63;9.53;;;6.40;73.70;;;;;;4919481;29;20830;-79
2022/03/20 07:18:17;;;;;;;10.33;6.90;;;6.50;72.40;;;;;;4918735;29;20408;-78
2022/03/20 07:20:44;;;;;;;13.80;8.77;;;6.20;72.80;;;;;;4918342;29;20839;-79
2022/03/20 07:23:11;;;;;;;13.40;8.40;;;6.70;71.60;;;;;;4918532;29;20825;-78
2022/03/20 07:31:06;;;;;;;9.03;6.60;;;7.30;70.20;;;;;;4918434;29;20439;-79
2022/03/20 07:33:33;;;;;;;8.40;6.27;;;6.70;70.80;;;;;;4917273;29;20416;-79
2022/03/20 07:35:59;;;;;;;9.93;7.87;;;7.70;70.30;;;;;;4917272;29;20192;-78
2022/03/20 07:38:25;;;;;;;11.80;7.13;;;7.70;70.00;;;;;;4918496;29;20906;-79
2022/03/20 07:40:50;;;;;;;12.60;7.80;;;7.60;69.50;;;;;;4918024;29;20451;-79
2022/03/20 07:43:16;;;;;;;14.03;8.93;;;7.50;69.10;;;;;;4916365;29;20635;-80
2022/03/20 07:45:42;;;;;;;10.23;7.17;;;7.90;70.10;;;;;;4917914;29;20180;-80
2022/03/20 07:48:08;;;;;;;13.67;7.73;;;7.70;69.60;;;;;;4916707;29;20416;-79
2022/03/20 07:50:35;;;;;;;9.37;7.07;;;7.40;69.50;;;;;;4916851;29;20451;-80
2022/03/20 07:53:00;;;;;;;13.03;8.80;;;7.40;69.60;;;;;;4916711;29;20248;-80
2022/03/20 07:55:28;;;;;;;15.57;8.23;;;7.60;69.60;;;;;;4918063;29;20846;-79
2022/03/20 07:57:55;;;;;;;13.07;8.43;;;7.50;70.50;;;;;;4916627;29;20625;-80
2022/03/20 08:00:21;;;;;;;14.77;7.23;;;8.00;70.30;;;;;;4917890;29;20429;-80
2022/03/20 08:02:51;;;;;;;13.10;8.00;;;7.90;69.20;;;;;;4916936;29;20500;-79
2022/03/20 08:05:17;;;;;;;12.13;7.50;;;7.80;69.90;;;;;;4916796;29;20434;-80
2022/03/20 08:07:43;;;;;;;10.50;7.00;;;7.70;69.70;;;;;;4916065;29;20428;-80
2022/03/20 08:10:11;;;;;;;9.37;7.03;;;7.60;71.00;;;;;;4917828;29;20423;-79
2022/03/20 08:12:37;;;;;;;13.97;7.67;;;7.30;70.60;;;;;;4917659;29;20610;-79
2022/03/20 08:15:04;;;;;;;9.63;7.80;;;7.20;72.30;;;;;;4916702;29;20524;-79
2022/03/20 08:17:29;;;;;;;10.43;7.73;;;6.80;73.50;;;;;;4916331;29;20503;-79
2022/03/20 08:19:58;;;;;;;13.07;9.63;;;6.70;73.30;;;;;;4916273;29;20595;-80
2022/03/20 08:22:27;;;;;;;10.60;6.10;;;6.70;74.70;;;;;;4916580;29;20660;-79
2022/03/20 08:24:52;;;;;;;9.90;6.50;;;6.40;73.90;;;;;;4916154;29;20420;-79
2022/03/20 08:27:20;;;;;;;13.33;7.30;;;6.30;73.70;;;;;;4917459;29;20438;-78
2022/03/20 08:29:46;;;;;;;13.03;7.37;;;6.50;74.80;;;;;;4917298;29;20173;-79
2022/03/20 08:32:12;;;;;;;10.50;6.40;;;6.40;74.80;;;;;;4916681;29;20436;-76
2022/03/20 08:34:37;;;;;;;11.90;6.77;;;6.30;74.90;;;;;;4915888;29;20180;-79
2022/03/20 08:37:03;;;;;;;17.97;8.03;;;6.10;74.00;;;;;;4915739;29;20548;-79
2022/03/20 08:39:28;;;;;;;10.47;6.47;;;6.40;75.10;;;;;;4916672;29;20191;-78
2022/03/20 08:41:54;;;;;;;12.00;7.53;;;6.70;73.50;;;;;;4915004;29;20212;-78
2022/03/20 08:44:20;;;;;;;14.53;8.00;;;7.30;73.50;;;;;;4915458;29;20240;-78
2022/03/20 08:46:45;;;;;;;9.00;6.40;;;7.30;71.30;;;;;;4916653;29;20614;-78
2022/03/20 08:49:11;;;;;;;8.87;6.97;;;7.10;72.10;;;;;;4915047;29;20180;-78
2022/03/20 08:51:42;;;;;;;11.00;6.90;;;7.50;71.80;;;;;;4915538;29;20200;-79
2022/03/20 08:54:09;;;;;;;11.00;8.27;;;7.20;71.60;;;;;;4917204;29;20169;-79
2022/03/20 08:56:34;;;;;;;14.80;6.40;;;7.10;72.60;;;;;;4916519;29;20472;-79
2022/03/20 08:59:00;;;;;;;16.30;5.90;;;7.50;71.60;;;;;;4916207;29;20417;-78
2022/03/20 09:01:26;;;;;;;10.03;6.87;;;7.40;72.10;;;;;;4914683;29;20310;-78
2022/03/20 09:03:52;;;;;;;8.70;6.07;;;7.70;71.80;;;;;;4916380;29;20236;-78
2022/03/20 09:06:18;;;;;;;11.83;7.47;;;7.70;71.10;;;;;;4915271;29;20188;-78
2022/03/20 09:08:44;;;;;;;8.60;6.50;;;7.80;71.40;;;;;;4915181;29;20424;-79
2022/03/20 09:11:09;;;;;;;10.63;7.07;;;7.90;70.50;;;;;;4916149;29;20492;-77
2022/03/20 09:13:35;;;;;;;11.30;7.50;;;7.60;70.70;;;;;;4916216;29;20236;-78
2022/03/20 09:19:00;;;;;;;9.30;5.70;;;8.20;70.30;;;;;;4916844;29;20219;-79
2022/03/20 09:21:28;;;;;;;6.93;5.90;;;8.10;70.00;;;;;;4916433;29;20444;-78
2022/03/20 09:23:54;;;;;;;11.37;6.00;;;8.70;69.30;;;;;;4916663;29;20417;-78
2022/03/20 09:26:19;;;;;;;8.60;6.73;;;8.60;68.20;;;;;;4915120;29;20775;-79
2022/03/20 09:28:46;;;;;;;11.50;6.93;;;8.30;69.80;;;;;;4916398;29;20259;-79
2022/03/20 09:31:13;;;;;;;7.23;5.23;;;8.60;69.10;;;;;;4916219;29;20188;-77
2022/03/20 09:33:39;;;;;;;13.10;7.33;;;8.30;68.00;;;;;;4915819;29;20428;-78
2022/03/20 09:36:04;;;;;;;6.13;4.70;;;8.40;69.50;;;;;;4914678;29;20488;-78
2022/03/20 09:38:31;;;;;;;10.93;6.90;;;8.50;68.50;;;;;;4915630;29;20968;-79
2022/03/20 09:40:59;;;;;;;14.40;8.27;;;8.30;69.90;;;;;;4914708;29;20340;-77
2022/03/20 09:43:25;;;;;;;10.27;7.27;;;8.90;69.40;;;;;;4916312;29;20463;-79
2022/03/20 09:45:53;;;;;;;12.63;7.10;;;9.30;67.80;;;;;;4916141;29;20413;-78
2022/03/20 09:48:19;;;;;;;14.53;7.50;;;9.30;66.50;;;;;;4914873;29;20192;-78
2022/03/20 09:50:47;;;;;;;19.10;10.00;;;8.70;67.20;;;;;;4915004;29;20582;-79
2022/03/20 09:53:12;;;;;;;12.00;6.63;;;8.90;68.50;;;;;;4915980;29;20187;-79
2022/03/20 09:55:38;;;;;;;10.77;6.93;;;8.90;66.00;;;;;;4915264;29;20417;-80
2022/03/20 09:58:03;;;;;;;14.27;7.30;;;8.40;66.10;;;;;;4915820;29;20519;-79
2022/03/20 10:00:30;;;;;;;16.27;7.63;;;8.60;67.00;;;;;;4914252;29;20204;-78
2022/03/20 10:02:56;;;;;;;9.23;6.87;;;8.60;66.00;;;;;;4914699;29;20678;-78
2022/03/20 10:05:23;;;;;;;14.43;8.27;;;9.20;66.90;;;;;;4914697;29;20418;-78
2022/03/20 10:07:49;;;;;;;9.83;6.03;;;9.40;66.50;;;;;;4916602;29;20207;-78
2022/03/20 10:10:18;;;;;;;13.07;7.47;;;9.20;63.90;;;;;;4918158;29;20455;-79
2022/03/20 10:12:51;;;;;;;13.43;7.70;;;8.90;65.70;;;;;;4919321;29;20180;-78
2022/03/20 10:15:45;;;;;;;18.00;8.17;;;8.70;65.60;;;;;;4919468;29;20902;-79
2022/03/20 10:18:24;;;;;;;9.23;6.07;;;8.60;66.60;;;;;;4918430;29;20809;-78
2022/03/20 10:21:00;;;;;;;15.30;6.70;;;8.40;64.90;;;;;;4920482;29;20432;-77
2022/03/20 10:23:36;;;;;;;11.63;5.50;;;8.30;66.20;;;;;;4920379;29;20571;-77
2022/03/20 10:26:11;;;;;;;9.07;5.33;;;7.90;65.70;;;;;;4919054;29;20420;-78
2022/03/20 10:28:41;;;;;;;12.73;6.40;;;8.10;66.80;;;;;;4917617;29;20424;-79
2022/03/20 10:31:10;;;;;;;9.70;6.33;;;8.30;65.90;;;;;;4919142;29;20447;-79
2022/03/20 10:33:40;;;;;;;12.13;6.60;;;8.50;66.60;;;;;;4917892;29;20485;-79
2022/03/20 10:36:23;;;;;;;8.37;5.87;;;9.00;66.60;;;;;;4917721;29;20428;-79
2022/03/20 10:38:49;;;;;;;12.50;7.60;;;8.70;66.20;;;;;;4917864;29;20439;-79
2022/03/20 10:41:21;;;;;;;9.20;4.83;;;8.90;66.60;;;;;;4918668;29;20440;-78
2022/03/20 10:43:48;;;;;;;7.93;5.60;;;9.20;65.80;;;;;;4917716;29;20420;-78
2022/03/20 10:46:22;;;;;;;11.03;7.40;;;8.90;65.40;;;;;;4918931;29;20906;-79
2022/03/20 10:48:53;;;;;;;8.67;5.37;;;9.10;66.90;;;;;;4918983;29;20393;-79
2022/03/20 10:51:39;;;;;;;11.80;5.77;;;8.90;65.70;;;;;;4917768;29;20490;-78
2022/03/20 10:54:12;;;;;;;6.40;4.57;;;9.00;66.10;;;;;;4917541;29;20412;-79
2022/03/20 10:56:52;;;;;;;9.70;6.00;;;8.40;65.00;;;;;;4918969;29;20405;-78
2022/03/20 10:59:17;;;;;;;7.07;5.43;;;8.30;65.50;;;;;;4918397;29;20404;-77
2022/03/20 11:01:47;;;;;;;9.20;5.83;;;8.20;65.10;;;;;;4918364;29;20829;-78
2022/03/20 11:04:15;;;;;;;10.40;6.57;;;8.30;66.50;;;;;;4918433;29;20180;-78
2022/03/20 11:06:46;;;;;;;9.90;6.00;;;8.40;66.10;;;;;;4918264;29;20408;-77
2022/03/20 11:09:13;;;;;;;9.13;5.60;;;8.50;66.00;;;;;;4918574;29;20404;-77
2022/03/20 11:11:42;;;;;;;7.73;5.60;;;8.40;65.80;;;;;;4918540;29;20861;-76
2022/03/20 11:14:10;;;;;;;7.57;5.53;;;8.30;65.80;;;;;;4918626;29;20423;-76
2022/03/20 11:16:37;;;;;;;9.03;6.17;;;8.40;66.50;;;;;;4919651;29;20416;-78
2022/03/20 11:19:07;;;;;;;7.00;5.13;;;8.40;66.30;;;;;;4919561;29;20413;-77
2022/03/20 11:21:36;;;;;;;8.97;6.00;;;8.40;66.20;;;;;;4916629;29;20440;-74
2022/03/20 11:24:02;;;;;;;8.07;4.40;;;8.30;66.00;;;;;;4917975;29;20619;-75
2022/03/20 11:26:29;;;;;;;8.73;6.50;;;8.50;67.00;;;;;;4917729;29;20448;-78
2022/03/20 11:28:59;;;;;;;8.83;6.20;;;8.70;67.00;;;;;;4917699;29;20904;-75
2022/03/20 11:31:25;;;;;;;10.60;6.40;;;8.60;66.00;;;;;;4917865;29;20941;-75
2022/03/20 11:33:52;;;;;;;8.10;6.10;;;8.40;65.70;;;;;;4917715;29;20933;-75
2022/03/20 11:36:17;;;;;;;10.20;6.07;;;8.90;67.50;;;;;;4917803;29;20419;-75
2022/03/20 11:38:43;;;;;;;7.20;5.30;;;8.90;65.70;;;;;;4917470;29;20409;-75
2022/03/20 11:41:21;;;;;;;9.63;6.50;;;8.90;65.30;;;;;;4917637;29;20207;-76
2022/03/20 11:44:20;;;;;;;10.40;5.87;;;8.60;66.10;;;;;;4917564;29;20686;-75
2022/03/20 11:46:46;;;;;;;5.37;4.80;;;8.80;66.10;;;;;;4916175;29;20428;-75
2022/03/20 11:49:16;;;;;;;8.27;4.90;;;8.90;65.70;;;;;;4917368;29;20412;-74
2022/03/20 11:51:50;;;;;;;9.23;5.97;;;8.50;64.60;;;;;;4916032;29;20444;-75
2022/03/20 11:54:16;;;;;;;6.00;4.60;;;8.50;65.30;;;;;;4916089;29;20558;-74
2022/03/20 11:56:41;;;;;;;8.93;5.33;;;8.70;65.10;;;;;;4917368;29;20519;-76
2022/03/20 11:59:45;;;;;;;6.53;4.73;;;8.80;65.70;;;;;;4915852;29;20204;-75
2022/03/20 12:02:15;;;;;;;5.47;4.67;;;9.00;65.70;;;;;;4917348;29;20298;-75
2022/03/20 12:04:46;;;;;;;7.30;5.07;;;8.80;64.10;;;;;;4916126;29;20785;-75
2022/03/20 12:07:40;;;;;;;5.83;4.47;;;9.10;64.20;;;;;;4917196;29;20413;-76
2022/03/20 12:10:22;;;;;;;5.97;4.93;;;9.20;63.90;;;;;;4892075;29;20499;-75
2022/03/20 12:12:59;;;;;;;8.97;6.30;;;9.30;61.70;;;;;;4916953;29;20400;-76
2022/03/20 12:15:27;;;;;;;6.53;4.90;;;9.10;61.60;;;;;;4916861;29;20400;-74
2022/03/20 12:17:58;;;;;;;10.63;5.87;;;9.30;61.80;;;;;;4916641;29;20515;-75
2022/03/20 12:20:48;;;;;;;5.80;4.37;;;9.30;62.10;;;;;;4916892;29;20934;-76
2022/03/20 12:23:31;;;;;;;7.00;4.60;;;9.50;61.10;;;;;;4915702;29;20471;-76
2022/03/20 12:25:56;;;;;;;9.70;5.57;;;9.80;60.90;;;;;;4916854;29;20413;-76
2022/03/20 12:28:29;;;;;;;6.63;4.63;;;9.70;60.20;;;;;;4916592;29;20511;-75
2022/03/20 12:30:54;;;;;;;8.17;4.33;;;10.10;61.00;;;;;;4916289;29;20192;-76
2022/03/20 12:33:27;;;;;;;9.70;4.80;;;9.80;59.20;;;;;;4916808;29;20421;-76
2022/03/20 12:35:54;;;;;;;8.73;5.30;;;9.80;59.40;;;;;;4916661;29;20669;-75
2022/03/20 12:38:40;;;;;;;7.37;4.90;;;9.80;59.20;;;;;;4916441;29;20427;-75
2022/03/20 12:41:11;;;;;;;6.53;4.50;;;9.80;59.60;;;;;;4916539;29;20527;-75
2022/03/20 12:43:37;;;;;;;5.43;4.10;;;9.90;60.00;;;;;;4916484;29;20826;-76
2022/03/20 12:46:03;;;;;;;5.50;4.20;;;10.10;59.90;;;;;;4915292;29;20456;-76
2022/03/20 12:48:32;;;;;;;7.03;5.23;;;9.90;59.60;;;;;;4916304;29;20184;-75
2022/03/20 12:51:01;;;;;;;5.87;3.97;;;9.80;60.20;;;;;;4916419;29;20758;-76
2022/03/20 12:53:39;;;;;;;5.87;4.27;;;9.90;60.10;;;;;;4899504;29;21005;-75
2022/03/20 12:58:50;;;;;;;8.80;4.83;;;9.90;59.10;;;;;;4916444;29;20437;-76
2022/03/20 13:01:16;;;;;;;8.00;4.97;;;10.00;59.10;;;;;;4915972;29;20452;-76
2022/03/20 13:03:42;;;;;;;7.97;5.20;;;9.80;57.90;;;;;;4899163;29;20256;-76
2022/03/20 13:06:08;;;;;;;11.90;3.97;;;10.00;59.50;;;;;;4916196;29;20413;-76
2022/03/20 13:08:38;;;;;;;5.80;4.07;;;10.40;60.20;;;;;;4915915;29;20516;-76
2022/03/20 13:14:01;;;;;;;7.67;5.00;;;10.30;59.10;;;;;;4916379;29;20488;-76
2022/03/20 13:16:28;;;;;;;5.90;4.47;;;10.40;60.00;;;;;;4916146;29;20409;-77
2022/03/20 13:18:53;;;;;;;6.13;4.10;;;10.40;59.70;;;;;;4914637;29;20432;-76
2022/03/20 13:21:19;;;;;;;6.03;4.50;;;10.40;59.60;;;;;;4914683;29;20972;-76
2022/03/20 13:23:46;;;;;;;10.07;4.00;;;10.30;59.40;;;;;;4914439;29;20291;-76
2022/03/20 13:26:17;;;;;;;14.33;4.57;;;10.60;59.50;;;;;;4915838;29;20431;-76
2022/03/20 13:28:45;;;;;;;5.13;4.40;;;10.50;57.90;;;;;;4915730;29;20396;-76
2022/03/20 13:31:16;;;;;;;8.13;4.33;;;10.60;60.00;;;;;;4915764;29;20772;-76
2022/03/20 13:33:57;;;;;;;7.37;4.63;;;10.70;58.70;;;;;;4915907;29;20423;-76
2022/03/20 13:36:25;;;;;;;4.97;3.80;;;10.70;59.00;;;;;;4916005;29;20419;-77
2022/03/20 13:38:53;;;;;;;6.67;3.37;;;10.50;58.70;;;;;;4914421;29;20951;-76
2022/03/20 13:41:24;;;;;;;9.80;3.80;;;10.30;57.00;;;;;;4914915;29;20432;-76
2022/03/20 13:44:01;;;;;;;4.63;3.30;;;10.00;57.70;;;;;;4915648;29;20456;-76
2022/03/20 13:46:30;;;;;;;8.97;4.30;;;10.10;56.90;;;;;;4914552;29;20463;-75
2022/03/20 13:49:04;;;;;;;7.10;4.77;;;10.10;57.80;;;;;;4915515;29;20401;-76
2022/03/20 13:51:30;;;;;;;6.63;4.47;;;10.10;57.60;;;;;;4915712;29;20424;-76
2022/03/20 13:54:16;;;;;;;6.27;4.50;;;10.10;57.10;;;;;;4914421;29;20749;-76
2022/03/20 13:56:44;;;;;;;7.30;4.47;;;10.20;57.30;;;;;;4915658;29;20412;-76
2022/03/20 13:59:15;;;;;;;4.90;3.50;;;10.20;57.50;;;;;;4915350;29;20405;-76
2022/03/20 14:01:54;;;;;;;6.70;4.00;;;10.10;56.60;;;;;;4915323;29;20541;-75
2022/03/20 14:04:21;;;;;;;8.00;4.40;;;9.90;57.80;;;;;;4914323;29;20487;-76
2022/03/20 14:06:56;;;;;;;5.60;4.23;;;10.00;57.30;;;;;;4914284;29;20964;-76
2022/03/20 14:09:38;;;;;;;9.13;3.77;;;10.00;57.80;;;;;;4915344;29;20400;-76
2022/03/20 14:12:30;;;;;;;5.63;4.23;;;9.80;57.20;;;;;;4914214;29;20450;-76
2022/03/20 14:15:04;;;;;;;7.60;4.30;;;9.80;57.50;;;;;;4915425;29;20396;-75
2022/03/20 14:17:44;;;;;;;6.73;3.57;;;10.00;58.20;;;;;;4915329;29;20395;-75
2022/03/20 14:20:24;;;;;;;11.60;5.37;;;9.80;57.80;;;;;;4915376;29;20440;-75
2022/03/20 14:22:54;;;;;;;5.10;4.00;;;9.90;58.30;;;;;;4915332;29;20451;-77
2022/03/20 14:25:36;;;;;;;5.30;4.10;;;10.20;57.80;;;;;;4915395;29;20409;-75
2022/03/20 14:28:04;;;;;;;6.27;5.13;;;10.20;57.50;;;;;;4914233;29;20749;-75
2022/03/20 14:41:36;;;;;;;8.50;4.70;;;9.80;57.70;;;;;;4915385;29;20443;-76
2022/03/20 14:44:13;;;;;;;4.40;3.47;;;9.70;58.00;;;;;;4915068;29;20814;-76
2022/03/20 14:46:40;;;;;;;5.47;4.27;;;9.50;57.40;;;;;;4915293;29;20403;-76
2022/03/20 14:49:08;;;;;;;7.63;4.57;;;9.60;58.00;;;;;;4913661;29;20404;-76
2022/03/20 14:51:37;;;;;;;7.33;3.93;;;9.60;58.30;;;;;;4913777;29;20447;-77
2022/03/20 14:54:04;;;;;;;8.23;4.50;;;9.70;58.30;;;;;;4917302;29;20543;-76
2022/03/20 14:56:32;;;;;;;7.60;4.60;;;9.70;58.90;;;;;;4918524;29;20419;-76
2022/03/20 14:58:58;;;;;;;4.17;3.27;;;10.10;59.40;;;;;;4918171;29;20545;-78
2022/03/20 15:01:24;;;;;;;6.63;4.60;;;10.00;57.00;;;;;;4918242;29;20878;-77
2022/03/20 15:03:49;;;;;;;6.30;4.60;;;9.60;58.40;;;;;;4918292;29;20504;-77
2022/03/20 15:06:15;;;;;;;5.40;4.67;;;9.60;58.40;;;;;;4918265;29;20453;-76
2022/03/20 15:11:26;;;;;;;7.30;4.83;;;9.40;59.50;;;;;;4918379;29;20203;-76
2022/03/20 15:13:57;;;;;;;5.97;3.97;;;9.40;58.80;;;;;;4918228;29;20428;-76
2022/03/20 15:16:24;;;;;;;9.23;5.30;;;9.30;58.90;;;;;;4918151;29;20417;-76
2022/03/20 15:18:50;;;;;;;4.97;2.90;;;9.30;59.60;;;;;;4917755;29;20507;-78
2022/03/20 15:21:16;;;;;;;3.90;2.97;;;9.40;58.90;;;;;;4918058;29;20564;-76
2022/03/20 15:23:42;;;;;;;6.20;4.87;;;9.20;59.70;;;;;;4916795;29;20211;-76
2022/03/20 15:26:08;;;;;;;4.13;3.70;;;9.10;60.20;;;;;;4918000;29;20416;-77
2022/03/20 15:28:33;;;;;;;10.37;4.23;;;9.00;60.00;;;;;;4917734;29;20599;-76
2022/03/20 15:30:59;;;;;;;7.90;5.57;;;9.10;59.80;;;;;;4916617;29;20192;-76
2022/03/20 15:33:26;;;;;;;8.90;5.40;;;9.00;60.20;;;;;;4917983;29;20203;-77
2022/03/20 15:35:51;;;;;;;7.70;5.10;;;9.10;60.20;;;;;;4917879;29;20424;-76
2022/03/20 15:38:17;;;;;;;4.73;3.73;;;9.20;60.00;;;;;;4917979;29;20469;-77
2022/03/20 15:40:43;;;;;;;6.47;4.80;;;8.80;60.40;;;;;;4917836;29;20238;-76
2022/03/20 15:43:09;;;;;;;5.77;4.23;;;8.80;59.60;;;;;;4916454;29;20210;-78
2022/03/20 15:45:34;;;;;;;4.03;3.33;;;8.80;60.50;;;;;;4916348;29;20777;-76
2022/03/20 15:48:00;;;;;;;7.20;5.47;;;8.80;60.10;;;;;;4917597;29;20611;-77
2022/03/20 15:50:26;;;;;;;8.17;5.43;;;8.90;60.90;;;;;;4917820;29;20176;-77
2022/03/20 15:52:52;;;;;;;8.63;5.40;;;8.80;61.10;;;;;;4917458;29;20587;-77
2022/03/20 15:55:18;;;;;;;6.43;4.70;;;8.70;61.20;;;;;;4917700;29;20180;-77
2022/03/20 15:57:43;;;;;;;6.70;4.10;;;8.60;61.60;;;;;;4916051;29;20412;-79
2022/03/20 16:00:09;;;;;;;4.73;4.00;;;8.50;61.50;;;;;;4917299;29;20216;-76
2022/03/20 16:02:35;;;;;;;8.13;5.57;;;8.50;61.30;;;;;;4917191;29;20207;-77
2022/03/20 16:05:00;;;;;;;7.80;5.17;;;8.40;61.30;;;;;;4915005;29;20419;-76
2022/03/20 16:07:26;;;;;;;12.60;6.10;;;8.40;62.00;;;;;;4917089;29;20184;-77
2022/03/20 16:09:51;;;;;;;9.73;5.73;;;8.40;62.00;;;;;;4917126;29;20176;-76
2022/03/20 16:12:17;;;;;;;6.30;5.07;;;8.40;62.80;;;;;;4915903;29;20243;-76
2022/03/20 16:14:42;;;;;;;7.77;5.53;;;8.30;62.90;;;;;;4917231;29;20186;-76
2022/03/20 16:17:09;;;;;;;10.60;5.37;;;8.30;63.30;;;;;;4916180;29;20176;-78
2022/03/20 16:19:35;;;;;;;8.57;4.77;;;8.10;63.00;;;;;;4917043;29;20184;-76
2022/03/20 16:22:00;;;;;;;5.43;4.07;;;8.10;63.50;;;;;;4917012;29;20479;-76
2022/03/20 16:29:54;;;;;;;8.00;5.13;;;7.80;63.80;;;;;;4917054;29;20428;-75
2022/03/20 16:32:19;;;;;;;7.90;4.80;;;7.60;64.20;;;;;;4917020;29;20950;-76
2022/03/20 16:34:48;;;;;;;10.70;5.60;;;7.50;64.20;;;;;;4916137;29;20219;-75
2022/03/20 16:37:14;;;;;;;8.07;5.47;;;7.50;64.60;;;;;;4916919;29;20978;-77
2022/03/20 16:39:39;;;;;;;7.60;5.20;;;7.40;64.60;;;;;;4916774;29;20499;-77
2022/03/20 16:42:05;;;;;;;8.27;4.20;;;7.30;64.50;;;;;;4916677;29;20494;-77
2022/03/20 16:44:33;;;;;;;8.13;5.57;;;7.30;64.60;;;;;;4915621;29;20184;-76
2022/03/20 16:46:59;;;;;;;10.07;5.70;;;7.30;64.50;;;;;;4916679;29;20178;-77
2022/03/20 16:49:25;;;;;;;15.50;8.77;;;7.20;65.00;;;;;;4916572;29;20496;-76
2022/03/20 16:51:51;;;;;;;6.50;4.30;;;7.10;65.70;;;;;;4916448;29;20436;-75
2022/03/20 16:54:17;;;;;;;7.67;5.10;;;7.10;65.30;;;;;;4916469;29;21073;-76
2022/03/20 16:56:42;;;;;;;7.37;5.50;;;7.10;65.50;;;;;;4916453;29;20203;-76
2022/03/20 16:59:08;;;;;;;4.30;3.37;;;7.00;65.30;;;;;;4916158;29;20521;-76
2022/03/20 17:01:34;;;;;;;6.70;3.90;;;7.00;65.50;;;;;;4914810;29;20222;-76
2022/03/20 17:04:00;;;;;;;5.53;3.70;;;6.90;65.60;;;;;;4914918;29;20464;-77
2022/03/20 17:06:26;;;;;;;6.53;4.17;;;6.90;65.90;;;;;;4916261;29;20181;-76
2022/03/20 17:08:51;;;;;;;10.10;3.90;;;6.80;65.80;;;;;;4914840;29;20267;-76
2022/03/20 17:11:18;;;;;;;8.13;4.97;;;6.90;65.20;;;;;;4916234;29;20559;-76
2022/03/20 17:13:45;;;;;;;5.00;3.80;;;6.80;65.00;;;;;;4917355;29;20172;-77
2022/03/20 17:16:11;;;;;;;6.87;5.40;;;6.80;65.10;;;;;;4917004;29;20417;-76
2022/03/20 17:18:38;;;;;;;9.83;5.80;;;6.70;65.40;;;;;;4899376;29;21063;-76
2022/03/20 18:11:15;;;;;;;9.50;5.07;;;5.60;70.20;;;;;;4952335;29;20554;-78
2022/03/20 18:29:51;;;;;;;9.87;5.93;;;5.40;71.00;;;;;;4872485;29;20493;-78
2022/03/20 18:32:21;;;;;;;10.60;7.17;;;5.40;71.10;;;;;;4898617;29;21099;-78
2022/03/20 18:59:22;;;;;;;9.83;5.73;;;4.80;73.40;;;;;;4943015;29;20387;-76
2022/03/20 19:09:36;;;;;;;8.73;5.27;;;4.80;73.40;;;;;;5619630;23;20584;-75
2022/03/20 19:12:02;;;;;;;11.63;6.37;;;4.80;73.60;;;;;;4960806;28;20430;-75
2022/03/20 19:14:30;;;;;;;14.30;6.73;;;4.70;74.30;;;;;;4955048;29;20410;-75
2022/03/20 19:16:55;;;;;;;10.17;6.20;;;4.60;74.50;;;;;;4955144;29;20481;-75
2022/03/20 19:19:22;;;;;;;8.40;6.83;;;4.70;74.10;;;;;;4955907;29;20493;-74